Time;durP1;ratioP1;P1;durP2;ratioP2;P2;SDS_P1;SDS_P2;PMS_P1;PMS_P2;Temp;Humidity;BMP_temperature;BMP_pressure;BME280_temperature;BME280_humidity;BME280_pressure;Samples;Min_cycle;Max_cycle;Signal;HPM_P1;HPM_P2
2021/04/26 00:00:37;;;;;;;5.00;1.70;;;;;;;;;;4918176;29;20051;-70
2021/04/26 00:03:04;;;;;;;3.85;2.08;;;;;;;;;;4949540;29;20048;-70
2021/04/26 00:05:30;;;;;;;5.18;2.42;;;;;;;;;;4924619;29;20103;-70
2021/04/26 00:07:56;;;;;;;6.45;1.98;;;;;;;;;;4933686;29;20107;-70
2021/04/26 00:10:23;;;;;;;3.60;1.70;;;;;;;;;;4949392;29;20056;-71
2021/04/26 00:12:49;;;;;;;3.83;1.98;;;;;;;;;;4933711;29;20051;-71
2021/04/26 00:15:33;;;;;;;6.97;2.10;;;;;;;;;;4946724;29;20458;-70
2021/04/26 00:18:00;;;;;;;6.57;2.78;;;;;;;;;;4933406;29;20056;-70
2021/04/26 00:20:28;;;;;;;5.57;2.00;;;;;;;;;;4934652;29;20403;-70
2021/04/26 00:22:55;;;;;;;5.55;2.47;;;;;;;;;;4933679;29;20056;-70
2021/04/26 00:25:22;;;;;;;4.65;2.05;;;;;;;;;;4932701;29;20107;-70
2021/04/26 00:27:48;;;;;;;2.97;1.90;;;;;;;;;;4933528;29;20047;-70
2021/04/26 00:30:18;;;;;;;4.85;2.05;;;;;;;;;;4933483;29;20087;-70
2021/04/26 00:32:45;;;;;;;5.88;2.10;;;;;;;;;;4933249;29;20051;-70
2021/04/26 00:35:12;;;;;;;3.58;1.98;;;;;;;;;;4933042;29;20060;-70
2021/04/26 00:37:38;;;;;;;4.43;2.10;;;;;;;;;;4917459;29;20086;-70
2021/04/26 00:40:05;;;;;;;5.65;2.30;;;;;;;;;;4917420;29;20055;-70
2021/04/26 00:42:32;;;;;;;3.10;2.15;;;;;;;;;;4919777;29;20055;-70
2021/04/26 00:44:58;;;;;;;7.22;2.78;;;;;;;;;;4941693;29;20086;-70
2021/04/26 00:47:25;;;;;;;5.45;2.88;;;;;;;;;;4925648;29;20075;-70
2021/04/26 00:49:51;;;;;;;4.72;2.22;;;;;;;;;;4929890;29;20059;-69
2021/04/26 00:52:17;;;;;;;7.40;2.53;;;;;;;;;;4948068;29;20636;-70
2021/04/26 00:54:43;;;;;;;4.82;2.40;;;;;;;;;;4929130;29;20056;-70
2021/04/26 00:57:10;;;;;;;6.20;2.60;;;;;;;;;;4929233;29;20440;-70
2021/04/26 00:59:36;;;;;;;9.70;2.95;;;;;;;;;;4933009;29;20126;-70
2021/04/26 01:02:02;;;;;;;5.78;2.30;;;;;;;;;;4948297;29;20127;-70
2021/04/26 01:04:30;;;;;;;2.65;2.13;;;;;;;;;;4930349;29;20054;-70
2021/04/26 01:06:56;;;;;;;6.90;2.63;;;;;;;;;;4929511;29;20052;-70
2021/04/26 01:09:22;;;;;;;5.80;2.63;;;;;;;;;;4917608;29;20083;-70
2021/04/26 01:11:55;;;;;;;6.80;2.63;;;;;;;;;;4949679;29;20051;-69
2021/04/26 01:14:26;;;;;;;;;;;;;;;;;;4948455;29;20122;-69
2021/04/26 01:17:02;;;;;;;5.25;2.45;;;;;;;;;;4949287;29;19926;-70
2021/04/26 01:19:50;;;;;;;4.55;2.42;;;;;;;;;;4932395;29;20538;-69
2021/04/26 01:22:46;;;;;;;6.40;2.45;;;;;;;;;;4947426;29;20055;-70
2021/04/26 01:25:15;;;;;;;6.78;2.70;;;;;;;;;;4941316;29;20062;-70
2021/04/26 01:27:41;;;;;;;6.28;2.55;;;;;;;;;;4938837;29;20119;-70
2021/04/26 01:30:39;;;;;;;7.60;2.90;;;;;;;;;;4941468;29;20079;-70
2021/04/26 01:33:13;;;;;;;4.65;2.92;;;;;;;;;;4958227;29;20052;-70
2021/04/26 01:35:39;;;;;;;5.68;2.38;;;;;;;;;;4939375;29;20062;-70
2021/04/26 01:38:27;;;;;;;3.55;2.33;;;;;;;;;;4942750;29;20075;-70
2021/04/26 01:40:53;;;;;;;6.80;3.15;;;;;;;;;;4940980;29;20094;-70
2021/04/26 01:43:24;;;;;;;7.82;3.20;;;;;;;;;;4937046;29;20142;-70
2021/04/26 01:45:53;;;;;;;8.70;3.20;;;;;;;;;;4940164;29;20047;-69
2021/04/26 01:48:19;;;;;;;8.65;3.45;;;;;;;;;;4938434;29;20055;-69
2021/04/26 01:50:45;;;;;;;5.63;3.08;;;;;;;;;;4939687;29;20083;-69
2021/04/26 01:53:11;;;;;;;6.72;3.10;;;;;;;;;;4938022;29;20581;-70
2021/04/26 01:55:37;;;;;;;5.00;3.28;;;;;;;;;;4936445;29;20051;-70
2021/04/26 01:58:03;;;;;;;4.38;3.05;;;;;;;;;;4951833;29;20557;-70
2021/04/26 02:00:32;;;;;;;9.70;4.07;;;;;;;;;;4951567;28;20051;-70
2021/04/26 02:02:59;;;;;;;4.95;3.50;;;;;;;;;;4920675;29;20055;-70
2021/04/26 02:05:26;;;;;;;8.25;3.70;;;;;;;;;;4919327;29;20119;-70
2021/04/26 02:07:53;;;;;;;8.63;4.10;;;;;;;;;;4951705;29;20052;-70
2021/04/26 02:10:22;;;;;;;9.20;3.55;;;;;;;;;;4935682;29;20490;-70
2021/04/26 02:12:48;;;;;;;8.48;3.92;;;;;;;;;;4935825;29;20084;-70
2021/04/26 02:15:19;;;;;;;4.95;3.65;;;;;;;;;;4935060;29;20130;-70
2021/04/26 02:17:45;;;;;;;7.40;3.78;;;;;;;;;;4935362;29;20107;-70
2021/04/26 02:20:14;;;;;;;7.65;3.90;;;;;;;;;;4935593;29;20051;-70
2021/04/26 02:22:41;;;;;;;6.18;4.10;;;;;;;;;;4935657;29;20470;-70
2021/04/26 02:25:10;;;;;;;7.03;4.00;;;;;;;;;;4929680;29;20051;-70
2021/04/26 02:27:36;;;;;;;4.53;3.33;;;;;;;;;;4935044;29;20189;-70
2021/04/26 02:30:06;;;;;;;12.15;4.25;;;;;;;;;;4919481;29;20080;-70
2021/04/26 02:33:08;;;;;;;8.38;3.47;;;;;;;;;;4919812;29;20119;-70
2021/04/26 02:35:43;;;;;;;8.57;4.28;;;;;;;;;;4887804;29;20087;-70
2021/04/26 02:38:15;;;;;;;5.15;4.03;;;;;;;;;;4919338;29;20052;-70
2021/04/26 02:40:51;;;;;;;6.20;3.72;;;;;;;;;;4919500;29;20077;-70
2021/04/26 02:43:17;;;;;;;8.40;4.55;;;;;;;;;;4935128;29;20134;-70
2021/04/26 02:45:53;;;;;;;6.07;4.07;;;;;;;;;;4923844;29;20106;-70
2021/04/26 02:48:19;;;;;;;8.18;3.67;;;;;;;;;;4950062;29;20495;-70
2021/04/26 02:50:46;;;;;;;10.82;4.97;;;;;;;;;;4935129;29;20554;-70
2021/04/26 02:53:13;;;;;;;7.13;4.00;;;;;;;;;;4935098;29;20063;-70
2021/04/26 02:55:39;;;;;;;7.43;4.50;;;;;;;;;;4933946;29;20584;-70
2021/04/26 02:58:06;;;;;;;8.27;4.35;;;;;;;;;;4919082;29;20060;-70
2021/04/26 03:00:32;;;;;;;7.18;3.95;;;;;;;;;;4919148;29;20059;-70
2021/04/26 03:02:58;;;;;;;5.20;3.70;;;;;;;;;;4919088;29;20095;-70
2021/04/26 03:05:24;;;;;;;10.60;4.38;;;;;;;;;;4918187;29;20110;-70
2021/04/26 03:07:50;;;;;;;13.45;4.50;;;;;;;;;;4915200;29;20052;-70
2021/04/26 03:10:17;;;;;;;8.35;3.90;;;;;;;;;;4884483;29;20060;-70
2021/04/26 03:12:48;;;;;;;9.63;4.18;;;;;;;;;;4915270;29;20127;-70
2021/04/26 03:15:17;;;;;;;10.25;5.07;;;;;;;;;;4930913;29;20545;-70
2021/04/26 03:17:43;;;;;;;11.63;5.13;;;;;;;;;;4915562;29;20052;-70
2021/04/26 03:20:14;;;;;;;10.43;4.40;;;;;;;;;;4915321;29;20494;-70
2021/04/26 03:22:40;;;;;;;9.13;3.85;;;;;;;;;;4900415;29;20131;-70
2021/04/26 03:25:07;;;;;;;8.95;4.40;;;;;;;;;;4899421;29;20048;-70
2021/04/26 03:27:33;;;;;;;7.82;4.28;;;;;;;;;;4921720;29;20122;-72
2021/04/26 03:29:59;;;;;;;10.80;6.55;;;;;;;;;;4925910;29;20490;-72
2021/04/26 03:32:26;;;;;;;6.13;5.03;;;;;;;;;;4926081;29;20048;-72
2021/04/26 03:34:53;;;;;;;7.90;4.55;;;;;;;;;;4935503;23;20075;-69
2021/04/26 03:37:20;;;;;;;9.00;4.53;;;;;;;;;;4924132;29;20071;-69
2021/04/26 03:39:46;;;;;;;8.15;4.18;;;;;;;;;;4908648;29;20110;-69
2021/04/26 03:42:16;;;;;;;6.30;4.70;;;;;;;;;;4926365;29;20076;-68
2021/04/26 03:44:44;;;;;;;9.82;4.70;;;;;;;;;;4909036;29;20048;-69
2021/04/26 03:47:10;;;;;;;8.10;4.32;;;;;;;;;;4907322;29;20080;-69
2021/04/26 03:49:36;;;;;;;11.68;4.53;;;;;;;;;;4906554;29;20052;-69
2021/04/26 03:52:04;;;;;;;9.80;5.00;;;;;;;;;;4908560;29;20052;-69
2021/04/26 03:54:30;;;;;;;7.68;4.50;;;;;;;;;;4916026;29;20052;-69
2021/04/26 03:56:56;;;;;;;7.38;5.20;;;;;;;;;;4915312;29;20204;-69
2021/04/26 03:59:22;;;;;;;8.60;4.75;;;;;;;;;;4916347;29;20056;-69
2021/04/26 04:01:49;;;;;;;7.13;4.40;;;;;;;;;;4916515;29;20060;-69
2021/04/26 04:04:15;;;;;;;6.03;4.43;;;;;;;;;;4915625;29;20162;-69
2021/04/26 04:06:41;;;;;;;12.05;4.63;;;;;;;;;;4915276;29;20491;-68
2021/04/26 04:09:07;;;;;;;11.70;4.72;;;;;;;;;;4915943;29;20118;-69
2021/04/26 04:11:33;;;;;;;7.85;4.70;;;;;;;;;;4916026;29;20052;-69
2021/04/26 04:14:00;;;;;;;8.20;4.75;;;;;;;;;;4915747;29;20086;-69
2021/04/26 04:16:27;;;;;;;6.68;4.40;;;;;;;;;;4915381;29;20060;-69
2021/04/26 04:18:54;;;;;;;8.60;5.18;;;;;;;;;;4915966;29;20083;-69
2021/04/26 04:21:20;;;;;;;8.93;4.70;;;;;;;;;;4915808;29;20103;-69
2021/04/26 04:23:46;;;;;;;8.85;4.07;;;;;;;;;;4916180;29;20484;-69
2021/04/26 04:26:13;;;;;;;8.60;4.85;;;;;;;;;;4914727;29;20131;-69
2021/04/26 04:28:39;;;;;;;7.03;3.92;;;;;;;;;;4915686;29;20052;-69
2021/04/26 04:31:05;;;;;;;7.18;4.20;;;;;;;;;;4908806;29;20052;-71
2021/04/26 04:33:32;;;;;;;5.03;3.95;;;;;;;;;;4896612;29;20067;-70
2021/04/26 04:35:58;;;;;;;6.18;4.05;;;;;;;;;;4896115;29;20217;-70
2021/04/26 04:38:25;;;;;;;10.32;4.93;;;;;;;;;;4896813;29;20080;-69
2021/04/26 04:40:52;;;;;;;7.75;3.97;;;;;;;;;;4896583;29;20104;-69
2021/04/26 04:43:19;;;;;;;7.10;3.78;;;;;;;;;;4896493;29;20438;-69
2021/04/26 04:45:45;;;;;;;5.93;4.35;;;;;;;;;;4895918;29;20087;-69
2021/04/26 04:48:11;;;;;;;8.02;3.92;;;;;;;;;;4896522;29;20396;-69
2021/04/26 04:50:37;;;;;;;7.07;4.07;;;;;;;;;;4896498;29;20517;-69
2021/04/26 04:53:04;;;;;;;7.00;3.92;;;;;;;;;;4896340;29;20060;-68
2021/04/26 04:55:30;;;;;;;7.38;4.80;;;;;;;;;;4896001;29;20056;-68
2021/04/26 04:57:56;;;;;;;6.80;3.72;;;;;;;;;;4896627;29;20056;-68
2021/04/26 05:00:22;;;;;;;8.70;4.20;;;;;;;;;;4896716;29;20127;-68
2021/04/26 05:02:48;;;;;;;11.60;4.95;;;;;;;;;;4896503;29;20064;-68
2021/04/26 05:05:14;;;;;;;11.55;4.15;;;;;;;;;;4893176;29;20135;-68
2021/04/26 05:07:40;;;;;;;11.57;4.68;;;;;;;;;;4894436;29;20056;-68
2021/04/26 05:10:07;;;;;;;9.25;4.70;;;;;;;;;;4894596;29;20057;-69
2021/04/26 05:12:34;;;;;;;7.85;4.40;;;;;;;;;;4894618;29;20108;-69
2021/04/26 05:15:01;;;;;;;8.30;4.97;;;;;;;;;;4894065;29;20101;-67
2021/04/26 05:17:28;;;;;;;10.43;4.75;;;;;;;;;;4893466;29;20052;-68
2021/04/26 05:19:54;;;;;;;14.48;4.85;;;;;;;;;;4894341;29;20136;-68
2021/04/26 05:22:20;;;;;;;7.47;4.50;;;;;;;;;;4893000;29;20503;-68
2021/04/26 05:24:46;;;;;;;10.85;4.60;;;;;;;;;;4894231;29;20108;-68
2021/04/26 05:27:12;;;;;;;9.77;4.40;;;;;;;;;;4892263;29;20430;-68
2021/04/26 05:29:38;;;;;;;16.75;4.85;;;;;;;;;;4894543;29;20053;-68
2021/04/26 05:32:05;;;;;;;7.30;4.50;;;;;;;;;;4893940;29;20155;-68
2021/04/26 05:34:31;;;;;;;8.32;4.18;;;;;;;;;;4894602;29;20048;-68
2021/04/26 05:36:57;;;;;;;9.80;4.43;;;;;;;;;;4896976;29;20089;-69
2021/04/26 05:39:23;;;;;;;9.23;4.00;;;;;;;;;;4896748;29;20087;-69
2021/04/26 05:41:49;;;;;;;9.15;4.60;;;;;;;;;;4897972;29;20053;-69
2021/04/26 05:44:15;;;;;;;10.15;5.22;;;;;;;;;;4897186;29;20096;-69
2021/04/26 05:46:41;;;;;;;10.63;4.93;;;;;;;;;;4897183;29;20104;-69
2021/04/26 05:49:07;;;;;;;9.57;4.70;;;;;;;;;;4897528;29;20060;-69
2021/04/26 05:51:33;;;;;;;14.18;5.07;;;;;;;;;;4897851;29;20053;-69
2021/04/26 05:54:00;;;;;;;9.90;5.30;;;;;;;;;;4897394;29;20052;-69
2021/04/26 05:56:26;;;;;;;8.55;4.70;;;;;;;;;;4896446;29;20060;-69
2021/04/26 05:58:52;;;;;;;13.98;5.28;;;;;;;;;;4897404;29;20186;-69
2021/04/26 06:01:18;;;;;;;8.27;4.07;;;;;;;;;;4895980;29;20559;-73
2021/04/26 06:03:44;;;;;;;10.55;4.75;;;;;;;;;;4876865;29;20567;-69
2021/04/26 06:06:10;;;;;;;10.25;4.75;;;;;;;;;;4886445;29;20428;-68
2021/04/26 06:08:36;;;;;;;8.95;4.20;;;;;;;;;;4889986;29;20057;-72
2021/04/26 06:11:02;;;;;;;7.80;4.32;;;;;;;;;;4893620;29;20093;-69
2021/04/26 06:13:28;;;;;;;12.15;5.05;;;;;;;;;;4887694;29;20060;-69
2021/04/26 06:15:55;;;;;;;8.35;5.43;;;;;;;;;;4884202;29;20077;-70
2021/04/26 06:18:22;;;;;;;9.88;4.25;;;;;;;;;;4888154;29;20147;-70
2021/04/26 06:20:50;;;;;;;6.85;3.85;;;;;;;;;;4885551;29;20108;-69
2021/04/26 06:23:17;;;;;;;6.07;4.10;;;;;;;;;;4889585;29;20053;-69
2021/04/26 06:25:43;;;;;;;6.25;3.60;;;;;;;;;;4888857;29;20124;-70
2021/04/26 06:28:11;;;;;;;7.80;3.92;;;;;;;;;;4886352;29;20052;-71
2021/04/26 06:30:39;;;;;;;8.52;4.68;;;;;;;;;;4884510;29;20053;-71
2021/04/26 06:33:06;;;;;;;6.78;3.67;;;;;;;;;;4886835;29;20500;-69
2021/04/26 06:35:32;;;;;;;9.25;5.57;;;;;;;;;;4885139;29;20088;-71
2021/04/26 06:37:58;;;;;;;7.93;4.00;;;;;;;;;;4885487;29;20104;-71
2021/04/26 06:40:24;;;;;;;8.50;4.35;;;;;;;;;;4885829;29;20100;-70
2021/04/26 06:42:50;;;;;;;7.07;4.00;;;;;;;;;;4884990;29;20057;-69
2021/04/26 06:45:20;;;;;;;4.65;3.83;;;;;;;;;;4885696;29;20389;-69
2021/04/26 06:47:53;;;;;;;5.85;4.07;;;;;;;;;;4883178;29;20053;-69
2021/04/26 06:50:21;;;;;;;8.48;3.75;;;;;;;;;;4887236;29;20052;-70
2021/04/26 06:52:47;;;;;;;6.90;4.70;;;;;;;;;;4907043;29;20475;-70
2021/04/26 06:55:14;;;;;;;7.75;3.67;;;;;;;;;;4886464;29;20120;-71
2021/04/26 06:57:40;;;;;;;6.22;4.00;;;;;;;;;;4884975;29;20460;-70
2021/04/26 07:00:07;;;;;;;9.98;4.25;;;;;;;;;;4885505;29;20507;-70
2021/04/26 07:02:34;;;;;;;5.53;4.13;;;;;;;;;;4884956;29;20053;-70
2021/04/26 07:05:00;;;;;;;9.32;4.53;;;;;;;;;;4885402;29;20056;-69
2021/04/26 07:07:26;;;;;;;5.38;3.38;;;;;;;;;;4888202;29;20049;-70
2021/04/26 07:09:53;;;;;;;9.18;4.10;;;;;;;;;;4899446;29;20066;-68
2021/04/26 07:12:19;;;;;;;6.93;4.43;;;;;;;;;;4885359;29;20056;-72
2021/04/26 07:14:45;;;;;;;5.40;3.92;;;;;;;;;;4883468;29;20101;-70
2021/04/26 07:17:17;;;;;;;6.30;3.90;;;;;;;;;;4889166;29;20147;-71
2021/04/26 07:19:43;;;;;;;6.00;4.05;;;;;;;;;;4886270;29;20053;-71
2021/04/26 07:22:09;;;;;;;7.35;3.88;;;;;;;;;;4887058;29;20101;-71
2021/04/26 07:24:35;;;;;;;9.43;4.68;;;;;;;;;;4883877;29;20579;-70
2021/04/26 07:27:01;;;;;;;6.28;4.10;;;;;;;;;;4887998;29;20418;-70
2021/04/26 07:29:27;;;;;;;6.30;3.70;;;;;;;;;;4901921;29;20392;-72
2021/04/26 07:31:54;;;;;;;6.03;3.35;;;;;;;;;;4889041;29;20052;-69
2021/04/26 07:34:20;;;;;;;7.03;4.40;;;;;;;;;;4883714;29;20057;-71
2021/04/26 07:36:46;;;;;;;6.78;4.03;;;;;;;;;;4884902;29;20056;-69
2021/04/26 07:39:13;;;;;;;5.13;4.03;;;;;;;;;;4883484;29;20053;-68
2021/04/26 07:41:39;;;;;;;6.15;3.85;;;;;;;;;;4885347;29;20604;-73
2021/04/26 07:44:06;;;;;;;5.18;3.50;;;;;;;;;;4883385;29;20082;-72
2021/04/26 07:46:32;;;;;;;6.00;4.03;;;;;;;;;;4884297;29;20049;-70
2021/04/26 07:49:02;;;;;;;7.80;4.30;;;;;;;;;;4881700;29;20056;-74
2021/04/26 07:51:29;;;;;;;8.25;4.60;;;;;;;;;;4890965;29;20080;-69
2021/04/26 07:53:55;;;;;;;5.28;3.65;;;;;;;;;;4882825;29;20060;-70
2021/04/26 07:56:21;;;;;;;9.60;4.22;;;;;;;;;;4901384;29;20056;-71
2021/04/26 07:58:47;;;;;;;9.43;4.57;;;;;;;;;;4885924;29;20435;-70
2021/04/26 08:01:14;;;;;;;6.38;3.50;;;;;;;;;;4888119;29;20067;-70
2021/04/26 08:03:40;;;;;;;6.10;4.05;;;;;;;;;;4886793;29;20132;-70
2021/04/26 08:06:06;;;;;;;7.95;4.25;;;;;;;;;;4881664;29;20064;-73
2021/04/26 08:08:33;;;;;;;6.20;4.32;;;;;;;;;;4886317;29;20059;-74
2021/04/26 08:10:59;;;;;;;7.40;4.38;;;;;;;;;;4889862;29;20064;-73
2021/04/26 08:13:26;;;;;;;8.20;4.13;;;;;;;;;;4884661;29;20053;-73
2021/04/26 08:15:53;;;;;;;8.73;4.30;;;;;;;;;;4884031;29;20057;-74
2021/04/26 08:18:19;;;;;;;7.68;3.97;;;;;;;;;;4898496;29;20084;-72
2021/04/26 08:20:45;;;;;;;7.53;3.78;;;;;;;;;;4884804;29;20388;-71
2021/04/26 08:23:12;;;;;;;9.65;3.85;;;;;;;;;;4883969;29;20090;-71
2021/04/26 08:25:38;;;;;;;9.82;4.35;;;;;;;;;;4896115;29;20420;-72
2021/04/26 08:28:05;;;;;;;10.50;3.58;;;;;;;;;;4883591;29;20446;-71
2021/04/26 08:30:31;;;;;;;4.88;3.60;;;;;;;;;;4883297;29;20104;-71
2021/04/26 08:32:57;;;;;;;6.65;4.65;;;;;;;;;;4883539;29;20464;-71
2021/04/26 08:35:23;;;;;;;7.68;4.80;;;;;;;;;;4882587;29;20394;-72
2021/04/26 08:37:49;;;;;;;7.57;4.28;;;;;;;;;;4883653;29;20096;-72
2021/04/26 08:40:15;;;;;;;9.90;4.05;;;;;;;;;;4897930;29;20126;-71
2021/04/26 08:42:42;;;;;;;6.80;4.25;;;;;;;;;;4882839;29;20052;-72
2021/04/26 08:45:09;;;;;;;8.68;4.40;;;;;;;;;;4884546;29;20084;-72
2021/04/26 08:47:40;;;;;;;6.82;4.32;;;;;;;;;;4881459;29;20086;-71
2021/04/26 08:50:08;;;;;;;6.30;3.72;;;;;;;;;;4871481;29;20048;-72
2021/04/26 08:52:35;;;;;;;8.57;3.92;;;;;;;;;;4893928;29;20102;-73
2021/04/26 08:55:02;;;;;;;6.95;3.95;;;;;;;;;;4883168;29;20079;-69
2021/04/26 08:57:28;;;;;;;7.85;4.13;;;;;;;;;;4896806;29;20057;-69
2021/04/26 08:59:55;;;;;;;5.40;3.92;;;;;;;;;;4885918;29;20464;-69
2021/04/26 09:02:21;;;;;;;7.40;3.83;;;;;;;;;;4885594;29;20531;-72
2021/04/26 09:04:51;;;;;;;6.25;4.30;;;;;;;;;;4883882;29;20117;-72
2021/04/26 09:07:18;;;;;;;7.93;4.30;;;;;;;;;;4895419;29;20092;-72
2021/04/26 09:09:48;;;;;;;6.78;4.03;;;;;;;;;;4884359;29;20423;-73
2021/04/26 09:12:23;;;;;;;6.57;3.90;;;;;;;;;;4886467;29;20044;-73
2021/04/26 09:15:04;;;;;;;6.50;4.32;;;;;;;;;;4884696;29;20144;-72
2021/04/26 09:17:44;;;;;;;4.32;3.92;;;;;;;;;;4902402;29;20045;-74
2021/04/26 09:20:42;;;;;;;9.60;3.85;;;;;;;;;;4888276;29;20087;-73
2021/04/26 09:23:26;;;;;;;6.70;4.32;;;;;;;;;;4881822;29;20526;-74
2021/04/26 09:25:54;;;;;;;7.65;4.10;;;;;;;;;;4887245;29;20052;-71
2021/04/26 09:28:21;;;;;;;4.97;3.92;;;;;;;;;;4884895;29;20057;-74
2021/04/26 09:30:54;;;;;;;6.93;4.32;;;;;;;;;;4886368;29;20090;-70
2021/04/26 09:33:36;;;;;;;5.30;4.22;;;;;;;;;;4894230;29;20444;-72
2021/04/26 09:36:15;;;;;;;7.20;4.35;;;;;;;;;;4887404;29;20080;-74
2021/04/26 09:38:52;;;;;;;10.82;4.65;;;;;;;;;;4904358;29;20056;-74
2021/04/26 09:41:32;;;;;;;7.65;4.40;;;;;;;;;;4887297;29;20118;-71
2021/04/26 09:44:00;;;;;;;8.82;4.00;;;;;;;;;;4885528;29;20125;-70
2021/04/26 09:46:56;;;;;;;8.65;4.68;;;;;;;;;;4889109;29;20056;-71
2021/04/26 09:49:24;;;;;;;5.65;4.18;;;;;;;;;;4888892;29;20059;-72
2021/04/26 09:51:55;;;;;;;7.80;4.25;;;;;;;;;;4885963;29;20527;-71
2021/04/26 09:54:44;;;;;;;5.72;3.92;;;;;;;;;;4885637;29;20049;-69
2021/04/26 09:57:11;;;;;;;7.55;4.10;;;;;;;;;;4876759;29;20099;-69
2021/04/26 09:59:45;;;;;;;7.70;4.35;;;;;;;;;;4886069;29;20049;-71
2021/04/26 10:02:13;;;;;;;6.95;4.25;;;;;;;;;;4891964;29;20075;-73
2021/04/26 10:04:42;;;;;;;8.50;4.35;;;;;;;;;;4887350;29;20049;-71
2021/04/26 10:07:26;;;;;;;8.60;4.07;;;;;;;;;;4885388;29;20057;-72
2021/04/26 10:09:56;;;;;;;5.88;4.43;;;;;;;;;;4898652;29;20151;-71
2021/04/26 10:12:23;;;;;;;5.55;4.70;;;;;;;;;;4887082;29;20061;-71
2021/04/26 10:14:49;;;;;;;11.82;4.47;;;;;;;;;;4888312;29;20053;-71
2021/04/26 10:17:35;;;;;;;8.52;4.43;;;;;;;;;;4899531;29;20504;-70
2021/04/26 10:20:04;;;;;;;6.25;4.03;;;;;;;;;;4900573;29;20049;-70
2021/04/26 10:22:36;;;;;;;5.13;3.58;;;;;;;;;;4887163;29;20497;-69
2021/04/26 10:25:03;;;;;;;6.82;4.28;;;;;;;;;;4907722;29;20104;-69
2021/04/26 10:27:30;;;;;;;9.57;4.25;;;;;;;;;;4882944;29;20059;-70
2021/04/26 10:30:16;;;;;;;5.30;3.72;;;;;;;;;;4888052;29;20056;-69
2021/04/26 10:33:06;;;;;;;10.57;4.40;;;;;;;;;;4885681;29;20069;-69
2021/04/26 10:35:52;;;;;;;5.60;3.67;;;;;;;;;;4887948;29;20057;-71
2021/04/26 10:38:35;;;;;;;6.75;4.50;;;;;;;;;;4885524;29;20063;-71
2021/04/26 10:41:03;;;;;;;5.32;3.83;;;;;;;;;;4887670;29;20083;-70
2021/04/26 10:43:30;;;;;;;6.97;4.32;;;;;;;;;;4887197;29;20052;-71
2021/04/26 10:46:14;;;;;;;5.30;3.75;;;;;;;;;;4884671;29;20056;-71
2021/04/26 10:49:03;;;;;;;8.65;4.28;;;;;;;;;;4884631;29;20109;-70
2021/04/26 10:51:30;;;;;;;6.40;4.30;;;;;;;;;;4883218;29;20049;-68
2021/04/26 10:54:03;;;;;;;7.28;4.00;;;;;;;;;;4885723;29;20070;-68
2021/04/26 10:56:31;;;;;;;6.25;4.35;;;;;;;;;;4883590;29;20140;-67
2021/04/26 10:59:16;;;;;;;6.85;3.97;;;;;;;;;;4887075;29;20056;-67
2021/04/26 11:01:44;;;;;;;7.05;4.28;;;;;;;;;;4888984;29;20111;-69
2021/04/26 11:04:11;;;;;;;9.13;4.28;;;;;;;;;;4883973;29;20053;-71
2021/04/26 11:06:37;;;;;;;6.35;4.10;;;;;;;;;;4885402;29;20108;-68
2021/04/26 11:09:13;;;;;;;6.75;3.78;;;;;;;;;;4893231;29;20052;-69
2021/04/26 11:11:48;;;;;;;6.53;4.65;;;;;;;;;;4885397;29;20507;-68
2021/04/26 11:14:20;;;;;;;7.00;4.28;;;;;;;;;;4884999;29;20121;-69
2021/04/26 11:16:53;;;;;;;6.57;3.88;;;;;;;;;;4881485;29;20081;-69
2021/04/26 11:19:19;;;;;;;7.45;3.88;;;;;;;;;;4884853;29;20519;-69
2021/04/26 11:21:48;;;;;;;6.25;3.67;;;;;;;;;;4898719;29;20057;-69
2021/04/26 11:24:26;;;;;;;5.40;3.63;;;;;;;;;;4880137;29;20453;-69
2021/04/26 11:27:07;;;;;;;5.70;3.40;;;;;;;;;;4882020;29;20108;-69
2021/04/26 11:29:45;;;;;;;4.90;3.40;;;;;;;;;;4883694;29;20111;-68
2021/04/26 11:32:13;;;;;;;7.60;3.90;;;;;;;;;;4884077;29;20048;-67
2021/04/26 11:34:53;;;;;;;5.55;3.33;;;;;;;;;;4885442;29;20060;-68
2021/04/26 11:37:23;;;;;;;5.90;3.95;;;;;;;;;;4886152;29;20059;-68
2021/04/26 11:39:53;;;;;;;7.45;3.17;;;;;;;;;;4884887;29;20053;-68
2021/04/26 11:42:22;;;;;;;9.05;3.60;;;;;;;;;;4885307;29;20532;-68
2021/04/26 11:44:49;;;;;;;5.80;3.53;;;;;;;;;;4886773;29;20053;-69
2021/04/26 11:47:16;;;;;;;6.10;3.35;;;;;;;;;;4884634;29;20100;-70
2021/04/26 11:49:50;;;;;;;6.57;3.15;;;;;;;;;;4892342;29;20060;-70
2021/04/26 11:52:23;;;;;;;7.25;3.47;;;;;;;;;;4886134;29;20052;-71
2021/04/26 11:55:09;;;;;;;4.30;3.47;;;;;;;;;;4899836;29;20052;-73
2021/04/26 11:57:55;;;;;;;4.38;3.10;;;;;;;;;;4897414;29;20091;-70
2021/04/26 12:00:29;;;;;;;4.65;3.03;;;;;;;;;;4882161;29;20235;-68
2021/04/26 12:03:06;;;;;;;6.70;3.55;;;;;;;;;;4882306;29;20651;-71
2021/04/26 12:05:33;;;;;;;6.18;3.30;;;;;;;;;;4883206;29;20064;-69
2021/04/26 12:07:59;;;;;;;4.07;2.80;;;;;;;;;;4882606;29;20057;-69
2021/04/26 12:10:28;;;;;;;4.72;3.22;;;;;;;;;;4886059;29;20072;-70
2021/04/26 12:13:02;;;;;;;5.75;3.50;;;;;;;;;;4883107;29;20053;-71
2021/04/26 12:15:29;;;;;;;7.00;3.80;;;;;;;;;;4884842;29;20105;-68
2021/04/26 12:17:58;;;;;;;9.35;3.60;;;;;;;;;;4885372;29;20360;-70
2021/04/26 12:20:27;;;;;;;6.97;3.47;;;;;;;;;;4884812;29;20599;-68
2021/04/26 12:23:01;;;;;;;7.18;3.42;;;;;;;;;;4885038;29;20060;-68
2021/04/26 12:25:33;;;;;;;6.72;3.35;;;;;;;;;;4883724;29;20049;-66
2021/04/26 12:28:04;;;;;;;4.38;3.40;;;;;;;;;;4885146;29;20595;-66
2021/04/26 12:30:39;;;;;;;5.90;2.92;;;;;;;;;;4892219;29;20048;-66
2021/04/26 12:33:20;;;;;;;5.40;3.40;;;;;;;;;;4883913;29;20053;-66
2021/04/26 12:35:47;;;;;;;8.27;3.47;;;;;;;;;;4882162;29;20779;-67
2021/04/26 12:38:14;;;;;;;4.00;3.03;;;;;;;;;;4883408;29;20112;-67
2021/04/26 12:40:40;;;;;;;4.78;3.17;;;;;;;;;;4882760;29;20053;-67
2021/04/26 12:43:12;;;;;;;4.25;3.08;;;;;;;;;;4884475;29;20067;-67
2021/04/26 12:45:43;;;;;;;4.22;3.15;;;;;;;;;;4880398;29;20097;-67
2021/04/26 12:48:17;;;;;;;5.13;3.22;;;;;;;;;;4887053;29;20395;-67
2021/04/26 12:50:45;;;;;;;5.55;2.95;;;;;;;;;;4882691;29;20504;-67
2021/04/26 12:53:18;;;;;;;4.00;2.90;;;;;;;;;;4883264;29;20081;-67
2021/04/26 12:56:02;;;;;;;6.18;3.05;;;;;;;;;;4885652;29;20056;-67
2021/04/26 12:58:30;;;;;;;4.82;2.50;;;;;;;;;;4881225;29;20545;-67
2021/04/26 13:01:06;;;;;;;3.72;3.17;;;;;;;;;;4883184;29;20049;-68
2021/04/26 13:03:36;;;;;;;4.40;2.53;;;;;;;;;;4884423;29;20457;-67
2021/04/26 13:06:08;;;;;;;4.57;2.75;;;;;;;;;;4882038;29;20057;-66
2021/04/26 13:08:35;;;;;;;5.95;4.05;;;;;;;;;;4885298;29;20100;-67
2021/04/26 13:11:05;;;;;;;4.28;2.65;;;;;;;;;;4883417;29;20068;-67
2021/04/26 13:13:32;;;;;;;3.47;2.97;;;;;;;;;;4883091;29;20052;-66
2021/04/26 13:16:15;;;;;;;3.15;2.63;;;;;;;;;;4883343;29;20045;-67
2021/04/26 13:18:53;;;;;;;5.55;2.65;;;;;;;;;;4882951;29;20084;-66
2021/04/26 13:21:23;;;;;;;4.80;2.80;;;;;;;;;;4882762;29;20496;-66
2021/04/26 13:23:50;;;;;;;5.63;2.83;;;;;;;;;;4898204;29;20113;-67
2021/04/26 13:26:35;;;;;;;5.10;2.80;;;;;;;;;;4881694;29;20057;-67
2021/04/26 13:29:15;;;;;;;3.80;2.95;;;;;;;;;;4885159;29;20089;-66
2021/04/26 13:31:43;;;;;;;3.58;2.80;;;;;;;;;;4884746;29;20053;-71
2021/04/26 13:34:10;;;;;;;3.70;2.70;;;;;;;;;;4882516;29;20568;-67
2021/04/26 13:36:36;;;;;;;6.97;2.95;;;;;;;;;;4884886;29;20052;-66
2021/04/26 13:39:05;;;;;;;5.07;2.80;;;;;;;;;;4882404;29;20060;-67
2021/04/26 13:41:31;;;;;;;5.05;3.15;;;;;;;;;;4882983;29;20492;-74
2021/04/26 13:43:57;;;;;;;3.65;2.55;;;;;;;;;;4897775;29;20049;-73
2021/04/26 13:46:23;;;;;;;5.15;2.85;;;;;;;;;;4882166;29;20041;-73
2021/04/26 13:48:49;;;;;;;4.18;2.72;;;;;;;;;;4885739;29;20479;-73
2021/04/26 13:51:17;;;;;;;4.70;3.00;;;;;;;;;;4880149;29;20052;-69
2021/04/26 13:53:43;;;;;;;4.15;2.95;;;;;;;;;;4883460;29;20140;-69
2021/04/26 13:56:09;;;;;;;4.00;2.80;;;;;;;;;;4881969;29;20105;-69
2021/04/26 13:58:35;;;;;;;5.80;3.10;;;;;;;;;;4886513;29;20085;-70
2021/04/26 14:01:03;;;;;;;3.10;2.47;;;;;;;;;;4902194;29;20055;-70
2021/04/26 14:03:29;;;;;;;4.10;3.05;;;;;;;;;;4887284;29;20109;-70
2021/04/26 14:05:56;;;;;;;5.82;3.50;;;;;;;;;;4886227;29;20077;-68
2021/04/26 14:08:22;;;;;;;4.15;2.88;;;;;;;;;;4889986;29;20555;-71
2021/04/26 14:10:49;;;;;;;4.07;3.00;;;;;;;;;;4884549;29;20113;-72
2021/04/26 14:13:16;;;;;;;4.53;2.30;;;;;;;;;;4888587;29;20575;-69
2021/04/26 14:15:42;;;;;;;6.78;2.90;;;;;;;;;;4883774;29;20460;-72
2021/04/26 14:18:09;;;;;;;4.47;2.95;;;;;;;;;;4885678;29;20072;-73
2021/04/26 14:20:38;;;;;;;4.20;2.97;;;;;;;;;;4885081;29;20049;-69
2021/04/26 14:23:07;;;;;;;4.47;3.03;;;;;;;;;;4886631;29;20520;-71
2021/04/26 14:25:34;;;;;;;20.60;4.32;;;;;;;;;;4911065;29;20060;-71
2021/04/26 14:28:01;;;;;;;179.15;21.60;;;;;;;;;;4884396;29;20428;-74
2021/04/26 14:30:27;;;;;;;4.88;2.83;;;;;;;;;;4886227;29;20049;-73
2021/04/26 14:32:54;;;;;;;4.10;2.40;;;;;;;;;;4884833;29;20052;-70
2021/04/26 14:35:20;;;;;;;4.95;2.85;;;;;;;;;;4901860;29;20453;-70
2021/04/26 14:37:55;;;;;;;4.38;2.53;;;;;;;;;;4896802;29;20516;-69
2021/04/26 14:40:22;;;;;;;5.82;3.03;;;;;;;;;;4884222;29;20076;-69
2021/04/26 14:42:49;;;;;;;4.82;2.95;;;;;;;;;;4898099;29;20089;-68
2021/04/26 14:45:15;;;;;;;7.57;2.95;;;;;;;;;;4892076;29;20044;-68
2021/04/26 14:47:41;;;;;;;2.92;2.72;;;;;;;;;;4884693;29;20052;-68
2021/04/26 14:50:07;;;;;;;4.25;3.08;;;;;;;;;;4888049;29;20073;-68
2021/04/26 14:52:33;;;;;;;4.07;3.15;;;;;;;;;;4885575;29;20085;-68
2021/04/26 14:54:59;;;;;;;3.70;2.92;;;;;;;;;;4887097;29;20105;-70